Time;durP1;ratioP1;P1;durP2;ratioP2;P2;SDS_P1;SDS_P2;PMS_P1;PMS_P2;Temp;Humidity;BMP_temperature;BMP_pressure;BME280_temperature;BME280_humidity;BME280_pressure;Samples;Min_cycle;Max_cycle;Signal;HPM_P1;HPM_P2
2023/07/07 00:01:30;;;;;;;7.05;4.55;;;12.70;89.00;;;;;;5082756;28;20588;-81
2023/07/07 00:03:57;;;;;;;9.60;4.32;;;12.70;89.10;;;;;;5057842;28;20129;-81
2023/07/07 00:06:24;;;;;;;9.63;4.35;;;12.70;89.20;;;;;;5082562;28;20480;-80
2023/07/07 00:08:51;;;;;;;5.63;4.03;;;12.70;89.30;;;;;;5084642;28;20493;-80
2023/07/07 00:11:18;;;;;;;6.90;4.03;;;12.60;89.30;;;;;;5071039;28;20055;-80
2023/07/07 00:13:45;;;;;;;6.20;4.53;;;12.60;89.40;;;;;;5090742;28;20070;-80
2023/07/07 00:16:13;;;;;;;8.30;4.30;;;12.60;90.00;;;;;;5091581;28;20040;-81
2023/07/07 00:18:41;;;;;;;10.60;3.80;;;12.60;89.50;;;;;;5071633;28;20098;-80
2023/07/07 00:21:08;;;;;;;10.45;4.65;;;12.50;88.10;;;;;;5090536;28;20052;-80
2023/07/07 00:23:38;;;;;;;5.93;4.38;;;12.40;87.10;;;;;;5084145;28;20056;-80
2023/07/07 00:26:08;;;;;;;7.95;3.75;;;12.40;87.50;;;;;;5090596;28;20055;-80
2023/07/07 00:28:36;;;;;;;5.55;4.13;;;12.30;87.30;;;;;;5073248;28;20047;-80
2023/07/07 00:31:03;;;;;;;8.57;4.35;;;12.30;87.10;;;;;;5087104;28;20545;-80
2023/07/07 00:33:29;;;;;;;8.27;4.85;;;12.20;87.10;;;;;;5083913;28;20052;-80
2023/07/07 00:35:56;;;;;;;7.70;4.38;;;12.20;87.50;;;;;;5071935;28;20046;-80
2023/07/07 00:38:24;;;;;;;6.07;4.15;;;12.20;87.50;;;;;;5081874;28;20511;-80
2023/07/07 00:40:52;;;;;;;9.35;4.10;;;12.20;88.20;;;;;;5085312;28;20136;-80
2023/07/07 00:43:20;;;;;;;9.52;4.75;;;12.20;88.50;;;;;;5068474;28;20051;-80
2023/07/07 00:45:47;;;;;;;7.50;4.13;;;12.10;88.20;;;;;;5085626;28;20079;-80
2023/07/07 00:48:19;;;;;;;7.15;3.78;;;12.10;87.70;;;;;;5088362;28;20127;-81
2023/07/07 00:51:21;;;;;;;4.63;3.45;;;12.10;87.20;;;;;;5074025;28;20055;-82
2023/07/07 00:53:50;;;;;;;7.53;4.03;;;12.00;87.00;;;;;;5090024;28;20047;-80
2023/07/07 00:56:33;;;;;;;4.32;2.97;;;11.90;86.40;;;;;;5079971;28;20071;-81
2023/07/07 00:59:03;;;;;;;4.03;3.53;;;11.90;87.30;;;;;;5071416;28;20504;-81
2023/07/07 01:01:31;;;;;;;6.75;3.65;;;11.80;87.30;;;;;;5064592;28;20080;-80
2023/07/07 01:04:02;;;;;;;5.82;3.65;;;11.80;87.20;;;;;;5085857;28;20131;-80
2023/07/07 01:06:34;;;;;;;5.30;3.63;;;11.80;86.90;;;;;;5069066;28;20070;-80
2023/07/07 01:09:08;;;;;;;6.28;3.72;;;11.80;87.70;;;;;;5071311;28;20054;-80
2023/07/07 01:11:36;;;;;;;9.53;4.13;;;11.70;87.90;;;;;;5070498;28;20121;-80
2023/07/07 01:14:12;;;;;;;4.75;3.30;;;11.70;88.10;;;;;;5091491;28;20684;-80
2023/07/07 01:16:47;;;;;;;6.68;3.70;;;11.70;87.90;;;;;;5085503;28;20048;-80
2023/07/07 01:19:33;;;;;;;7.35;3.58;;;11.60;87.80;;;;;;5069295;28;20047;-80
2023/07/07 01:22:06;;;;;;;4.25;3.30;;;11.60;88.10;;;;;;5085144;28;20051;-80
2023/07/07 01:25:02;;;;;;;4.93;3.67;;;11.50;88.20;;;;;;5086121;28;20131;-80
2023/07/07 01:27:42;;;;;;;4.93;3.30;;;11.50;87.60;;;;;;5072762;28;20070;-80
2023/07/07 01:30:35;;;;;;;4.25;3.30;;;11.40;87.90;;;;;;5063799;28;20048;-80
2023/07/07 01:33:10;;;;;;;4.53;3.65;;;11.40;88.30;;;;;;5087264;28;20484;-80
2023/07/07 01:35:37;;;;;;;4.90;3.92;;;11.40;87.40;;;;;;5087120;28;20056;-81
2023/07/07 01:38:05;;;;;;;5.32;3.38;;;11.30;87.70;;;;;;5071912;28;20044;-80
2023/07/07 01:40:45;;;;;;;6.32;3.33;;;11.30;87.70;;;;;;5087075;28;20090;-81
2023/07/07 01:43:26;;;;;;;4.35;3.03;;;11.30;87.30;;;;;;5090932;28;20052;-80
2023/07/07 01:46:02;;;;;;;5.72;3.67;;;11.30;87.30;;;;;;5072077;28;20086;-80
2023/07/07 01:48:38;;;;;;;6.63;3.85;;;11.20;87.70;;;;;;5086394;28;20060;-80
2023/07/07 01:51:10;;;;;;;5.13;3.92;;;11.20;87.50;;;;;;5068240;28;20716;-80
2023/07/07 01:53:38;;;;;;;7.28;3.83;;;11.10;88.20;;;;;;5072880;28;20469;-80
2023/07/07 01:56:06;;;;;;;8.75;3.58;;;11.10;88.20;;;;;;5072928;28;20081;-80
2023/07/07 01:58:35;;;;;;;7.55;4.13;;;11.10;88.10;;;;;;5084414;28;20048;-80
2023/07/07 02:01:02;;;;;;;5.45;3.83;;;11.10;88.40;;;;;;5065926;28;20564;-80
2023/07/07 02:03:29;;;;;;;8.27;4.28;;;11.00;89.10;;;;;;5067726;28;20052;-80
2023/07/07 02:05:56;;;;;;;8.85;4.60;;;11.00;89.00;;;;;;5082976;28;20117;-81
2023/07/07 02:08:23;;;;;;;7.10;4.28;;;11.00;89.90;;;;;;5084042;28;20226;-80
2023/07/07 02:10:50;;;;;;;9.27;4.88;;;11.00;90.60;;;;;;5061031;28;20481;-81
2023/07/07 02:13:17;;;;;;;6.85;4.35;;;11.00;90.50;;;;;;5067525;28;20044;-81
2023/07/07 02:15:44;;;;;;;6.55;4.78;;;11.00;90.90;;;;;;5070250;28;20672;-80
2023/07/07 02:18:11;;;;;;;8.73;5.15;;;11.00;90.90;;;;;;5083447;28;20044;-80
2023/07/07 02:20:38;;;;;;;7.45;4.47;;;11.00;91.40;;;;;;5061465;28;20067;-81
2023/07/07 02:23:05;;;;;;;6.80;4.72;;;10.90;90.70;;;;;;5072220;28;20121;-81
2023/07/07 02:25:32;;;;;;;6.93;4.43;;;10.90;91.00;;;;;;5068874;28;20052;-80
2023/07/07 02:27:59;;;;;;;6.20;4.65;;;10.90;91.20;;;;;;5078372;28;20139;-81
2023/07/07 02:30:26;;;;;;;6.10;4.50;;;10.90;91.40;;;;;;5071952;28;20044;-80
2023/07/07 02:32:53;;;;;;;8.32;5.00;;;10.80;91.40;;;;;;5085310;28;20044;-80
2023/07/07 02:35:19;;;;;;;12.73;4.80;;;10.80;91.60;;;;;;5068296;28;20040;-80
2023/07/07 02:37:46;;;;;;;7.15;4.85;;;10.80;91.90;;;;;;5072786;28;20507;-80
2023/07/07 02:40:15;;;;;;;8.02;5.10;;;10.80;91.90;;;;;;5069753;28;20052;-80
2023/07/07 02:42:42;;;;;;;5.63;4.35;;;10.80;91.80;;;;;;5069311;28;20132;-80
2023/07/07 02:45:09;;;;;;;8.25;4.45;;;10.80;91.20;;;;;;5083907;28;20042;-80
2023/07/07 02:47:36;;;;;;;6.25;4.03;;;10.80;90.40;;;;;;5071579;28;20052;-80
2023/07/07 02:50:03;;;;;;;5.65;4.47;;;10.80;89.50;;;;;;5060752;28;20044;-80
2023/07/07 02:52:30;;;;;;;5.82;3.60;;;10.70;89.10;;;;;;5071134;28;20143;-80
2023/07/07 02:54:57;;;;;;;4.55;3.70;;;10.70;89.30;;;;;;5092493;28;20063;-80
2023/07/07 02:57:24;;;;;;;8.65;4.00;;;10.70;89.40;;;;;;5077360;28;20079;-82
2023/07/07 02:59:50;;;;;;;5.22;3.70;;;10.60;89.30;;;;;;5080980;28;20051;-81
2023/07/07 03:02:17;;;;;;;7.47;4.60;;;10.60;89.50;;;;;;5070821;28;20059;-80
2023/07/07 03:04:47;;;;;;;5.70;3.70;;;10.60;89.30;;;;;;5067012;28;20131;-82
2023/07/07 03:07:14;;;;;;;7.07;3.67;;;10.50;89.60;;;;;;5071499;28;20055;-81
2023/07/07 03:09:41;;;;;;;7.63;4.22;;;10.50;88.90;;;;;;5067873;28;20056;-81
2023/07/07 03:12:08;;;;;;;6.13;4.22;;;10.40;88.80;;;;;;5062104;28;20075;-81
2023/07/07 03:14:35;;;;;;;5.85;3.88;;;10.40;89.20;;;;;;5067627;28;20358;-82
2023/07/07 03:17:05;;;;;;;9.23;3.92;;;10.30;89.00;;;;;;5068690;28;20044;-81
2023/07/07 03:19:32;;;;;;;6.00;4.10;;;10.30;89.50;;;;;;5074452;28;20102;-81
2023/07/07 03:21:59;;;;;;;9.60;4.15;;;10.30;89.80;;;;;;5077679;28;20047;-81
2023/07/07 03:24:26;;;;;;;5.72;4.20;;;10.30;89.30;;;;;;5075805;28;20554;-82
2023/07/07 03:26:53;;;;;;;6.97;3.78;;;10.30;89.90;;;;;;5083813;28;20064;-82
2023/07/07 03:29:20;;;;;;;9.07;4.28;;;10.30;90.50;;;;;;5091185;28;20050;-81
2023/07/07 03:31:47;;;;;;;5.07;3.40;;;10.40;90.90;;;;;;5069272;28;20106;-82
2023/07/07 03:34:14;;;;;;;6.55;3.75;;;10.30;90.00;;;;;;5087166;28;20097;-81
2023/07/07 03:36:42;;;;;;;6.80;4.22;;;10.40;90.00;;;;;;5068499;28;20098;-82
2023/07/07 03:39:09;;;;;;;5.20;3.85;;;10.40;89.70;;;;;;5086850;28;20586;-82
2023/07/07 03:41:36;;;;;;;6.38;4.00;;;10.40;90.10;;;;;;5082958;28;20051;-82
2023/07/07 03:44:03;;;;;;;6.65;4.07;;;10.40;89.90;;;;;;5062842;28;20621;-82
2023/07/07 03:46:30;;;;;;;9.73;4.30;;;10.40;90.20;;;;;;5074463;28;20052;-81
2023/07/07 03:48:58;;;;;;;7.28;4.15;;;10.40;90.40;;;;;;5090688;28;20045;-80
2023/07/07 03:51:28;;;;;;;6.47;4.45;;;10.50;90.40;;;;;;5071786;28;20529;-81
2023/07/07 03:53:55;;;;;;;5.85;4.05;;;10.50;90.20;;;;;;5072410;28;20044;-81
2023/07/07 03:56:22;;;;;;;7.45;4.07;;;10.40;90.00;;;;;;5086134;28;20086;-81
2023/07/07 03:58:49;;;;;;;9.55;4.32;;;10.50;90.70;;;;;;5083527;28;20171;-81
2023/07/07 04:01:16;;;;;;;5.25;3.80;;;10.50;90.70;;;;;;5086874;28;20139;-81
2023/07/07 04:03:45;;;;;;;6.88;4.20;;;10.50;90.90;;;;;;5057285;28;20132;-80
2023/07/07 04:06:15;;;;;;;5.88;4.00;;;10.50;90.80;;;;;;5063366;28;20043;-80
2023/07/07 04:08:41;;;;;;;6.68;4.50;;;10.60;91.30;;;;;;5089401;28;20163;-81
2023/07/07 04:11:17;;;;;;;7.32;4.50;;;10.60;91.50;;;;;;5072347;28;20058;-80
2023/07/07 04:13:46;;;;;;;11.35;4.63;;;10.60;91.30;;;;;;5068342;28;20098;-81
2023/07/07 04:16:24;;;;;;;11.55;4.13;;;10.70;91.70;;;;;;5088971;28;20040;-81
2023/07/07 04:18:55;;;;;;;7.25;4.40;;;10.70;91.50;;;;;;5089847;28;20048;-81
2023/07/07 04:21:24;;;;;;;10.27;5.70;;;10.80;92.00;;;;;;5090199;28;20059;-81
2023/07/07 04:23:53;;;;;;;11.18;5.28;;;10.80;92.20;;;;;;5088738;28;20727;-82
2023/07/07 04:26:22;;;;;;;8.32;4.65;;;10.90;92.00;;;;;;5072629;28;20469;-80
2023/07/07 04:28:51;;;;;;;8.23;5.00;;;10.90;92.20;;;;;;5090662;28;20056;-81
2023/07/07 04:31:20;;;;;;;7.75;4.60;;;11.00;92.20;;;;;;5091417;28;20044;-80
2023/07/07 04:33:47;;;;;;;8.10;5.28;;;11.10;92.60;;;;;;5064627;28;20048;-81
2023/07/07 04:36:15;;;;;;;11.00;5.78;;;11.20;92.80;;;;;;5071665;28;20562;-81
2023/07/07 04:38:42;;;;;;;6.82;5.00;;;11.20;93.00;;;;;;5067405;28;20045;-81
2023/07/07 04:41:12;;;;;;;7.53;5.28;;;11.30;93.20;;;;;;5056170;28;20044;-81
2023/07/07 04:43:45;;;;;;;12.65;5.70;;;11.40;93.50;;;;;;5086674;28;20052;-81
2023/07/07 04:46:15;;;;;;;10.52;5.05;;;11.50;93.70;;;;;;5085737;28;20121;-81
2023/07/07 04:48:42;;;;;;;8.45;5.18;;;11.60;93.90;;;;;;5071446;28;20055;-79
2023/07/07 04:51:11;;;;;;;11.27;6.43;;;11.60;94.10;;;;;;5085284;28;20762;-79
2023/07/07 04:53:39;;;;;;;9.95;5.88;;;11.70;93.90;;;;;;5054914;28;20110;-79
2023/07/07 04:56:11;;;;;;;8.90;5.78;;;11.80;93.90;;;;;;5080642;28;20076;-80
2023/07/07 04:58:40;;;;;;;7.18;5.43;;;11.90;93.90;;;;;;5056262;28;20052;-83
2023/07/07 05:01:11;;;;;;;13.35;5.97;;;12.00;94.00;;;;;;5089312;28;20138;-86
2023/07/07 05:03:40;;;;;;;7.22;5.25;;;12.00;93.80;;;;;;5071813;28;20071;-86
2023/07/07 05:06:08;;;;;;;13.65;6.40;;;12.10;93.70;;;;;;5069504;28;20051;-84
2023/07/07 05:08:38;;;;;;;10.15;5.57;;;12.20;93.50;;;;;;5071506;28;20076;-86
2023/07/07 05:11:06;;;;;;;8.60;5.70;;;12.30;93.50;;;;;;5073587;28;20048;-85
2023/07/07 05:13:33;;;;;;;15.02;5.60;;;12.40;93.40;;;;;;5073934;28;20103;-85
2023/07/07 05:16:07;;;;;;;7.30;5.22;;;12.50;93.10;;;;;;5065642;28;20422;-82
2023/07/07 05:18:49;;;;;;;7.75;5.50;;;12.60;92.70;;;;;;5036498;28;20055;-82
2023/07/07 05:21:18;;;;;;;10.48;5.45;;;12.70;92.80;;;;;;5083149;28;20128;-81
2023/07/07 05:23:45;;;;;;;7.60;5.03;;;12.80;92.50;;;;;;5053818;28;20108;-85
2023/07/07 05:26:12;;;;;;;7.63;4.43;;;12.90;91.70;;;;;;5066625;28;20072;-87
2023/07/07 05:28:39;;;;;;;9.90;4.78;;;13.00;90.90;;;;;;5061946;28;20098;-85
2023/07/07 05:31:07;;;;;;;10.65;4.63;;;13.10;90.50;;;;;;5066710;28;20120;-82
2023/07/07 05:33:50;;;;;;;6.22;4.28;;;13.20;90.50;;;;;;5068925;28;20553;-82
2023/07/07 05:36:17;;;;;;;7.25;4.45;;;13.30;90.60;;;;;;5064941;28;20556;-75
2023/07/07 05:38:44;;;;;;;7.22;4.30;;;13.40;90.80;;;;;;5066831;28;20067;-78
2023/07/07 05:41:11;;;;;;;9.82;4.55;;;13.50;90.50;;;;;;5063181;28;20040;-82
2023/07/07 05:43:38;;;;;;;6.25;4.32;;;13.60;90.60;;;;;;5086381;28;20052;-79
2023/07/07 05:46:11;;;;;;;12.27;4.70;;;13.70;90.40;;;;;;5067736;28;20044;-78
2023/07/07 05:48:39;;;;;;;8.30;4.45;;;13.90;90.00;;;;;;5079903;28;20072;-78
2023/07/07 05:51:10;;;;;;;6.97;4.25;;;14.00;89.60;;;;;;5086635;28;20047;-79
2023/07/07 05:53:40;;;;;;;6.55;4.43;;;14.10;88.80;;;;;;5064108;28;20056;-79
2023/07/07 05:56:13;;;;;;;6.60;4.22;;;14.20;89.60;;;;;;5085974;28;20068;-79
2023/07/07 05:58:39;;;;;;;6.72;4.15;;;14.40;89.30;;;;;;5066909;28;20052;-79
2023/07/07 06:01:10;;;;;;;6.05;3.88;;;14.50;89.10;;;;;;5080608;28;20051;-79
2023/07/07 06:03:39;;;;;;;5.47;4.18;;;14.70;88.90;;;;;;5069835;28;20052;-79
2023/07/07 06:06:07;;;;;;;7.82;4.45;;;14.80;89.20;;;;;;5087036;28;20113;-79
2023/07/07 06:08:34;;;;;;;5.25;3.38;;;15.00;88.50;;;;;;5064725;28;20069;-79
2023/07/07 06:11:01;;;;;;;9.10;4.00;;;15.20;87.40;;;;;;5076345;28;20389;-79
2023/07/07 06:13:28;;;;;;;12.45;4.85;;;15.40;87.40;;;;;;5064181;28;20113;-78
2023/07/07 06:15:56;;;;;;;6.32;3.10;;;15.70;86.60;;;;;;5083399;28;20048;-78
2023/07/07 06:18:23;;;;;;;7.40;3.28;;;15.90;84.40;;;;;;5080218;28;20044;-78
2023/07/07 06:20:51;;;;;;;6.35;3.70;;;16.20;83.10;;;;;;5085476;28;20152;-78
2023/07/07 06:23:19;;;;;;;7.60;3.38;;;16.50;82.20;;;;;;5064260;28;20139;-78
2023/07/07 06:25:50;;;;;;;8.10;2.88;;;16.90;81.50;;;;;;5065611;28;20056;-78
2023/07/07 06:28:17;;;;;;;6.38;3.38;;;17.20;78.30;;;;;;5067055;28;20044;-78
2023/07/07 06:30:47;;;;;;;3.85;2.70;;;17.50;77.00;;;;;;5081960;28;20569;-78
2023/07/07 06:33:15;;;;;;;7.35;2.95;;;17.90;75.80;;;;;;5057117;28;20071;-78
2023/07/07 06:35:45;;;;;;;8.77;2.80;;;18.20;75.30;;;;;;5080030;28;20124;-78
2023/07/07 06:38:13;;;;;;;6.07;2.55;;;18.50;74.00;;;;;;5076893;28;20477;-78
2023/07/07 06:40:40;;;;;;;6.70;2.63;;;18.80;73.00;;;;;;5082972;28;20078;-79
2023/07/07 06:43:07;;;;;;;5.50;3.05;;;19.10;72.30;;;;;;5080428;28;20548;-78
2023/07/07 06:45:35;;;;;;;9.20;3.13;;;19.40;70.20;;;;;;5081602;28;20157;-78
2023/07/07 06:48:02;;;;;;;3.28;2.33;;;19.70;70.10;;;;;;5072150;28;20130;-78
2023/07/07 06:50:36;;;;;;;5.78;2.38;;;20.00;69.70;;;;;;5063489;28;20122;-78
2023/07/07 06:53:02;;;;;;;3.45;2.28;;;20.40;67.30;;;;;;5052038;28;20108;-78
2023/07/07 06:55:29;;;;;;;10.55;2.30;;;20.60;66.60;;;;;;5073541;28;20126;-79
2023/07/07 06:57:56;;;;;;;4.07;2.15;;;20.80;66.00;;;;;;5083838;28;20097;-78
2023/07/07 07:00:23;;;;;;;4.93;2.25;;;21.10;65.90;;;;;;5062245;28;20545;-78
2023/07/07 07:02:50;;;;;;;5.72;2.78;;;21.30;65.40;;;;;;5080146;28;20044;-78
2023/07/07 07:05:17;;;;;;;3.00;2.00;;;21.60;64.60;;;;;;5073911;28;20056;-78
2023/07/07 07:07:44;;;;;;;7.07;2.63;;;21.90;64.10;;;;;;5054627;28;20116;-79
2023/07/07 07:10:11;;;;;;;5.05;2.90;;;22.10;62.50;;;;;;5077831;28;20057;-78
2023/07/07 07:12:39;;;;;;;5.57;2.55;;;22.30;62.00;;;;;;5071933;28;20465;-79
2023/07/07 07:15:09;;;;;;;5.47;2.00;;;22.60;60.20;;;;;;5081488;28;20127;-79
2023/07/07 07:17:36;;;;;;;6.68;2.38;;;22.80;59.80;;;;;;5079963;28;20598;-79
2023/07/07 07:20:06;;;;;;;5.68;1.92;;;23.00;59.40;;;;;;5072389;28;20148;-79
2023/07/07 07:22:33;;;;;;;2.90;1.98;;;23.30;57.60;;;;;;5074338;28;20060;-79
2023/07/07 07:25:00;;;;;;;5.70;2.10;;;23.40;57.30;;;;;;5087045;28;20135;-79
2023/07/07 07:27:27;;;;;;;4.93;2.20;;;23.60;54.40;;;;;;5084410;28;20062;-79
2023/07/07 07:29:59;;;;;;;5.75;1.80;;;23.80;55.40;;;;;;5078246;28;20079;-78
2023/07/07 07:32:34;;;;;;;3.78;1.80;;;24.00;54.50;;;;;;5081032;28;20067;-79
2023/07/07 07:35:02;;;;;;;4.45;2.10;;;24.10;53.60;;;;;;5070286;28;20052;-79
2023/07/07 07:37:28;;;;;;;4.57;2.30;;;24.30;51.90;;;;;;5090597;28;20044;-79
2023/07/07 07:39:55;;;;;;;6.53;2.00;;;24.50;54.10;;;;;;5089320;28;20048;-79
2023/07/07 07:42:22;;;;;;;3.65;1.63;;;24.60;51.90;;;;;;5088975;28;20416;-78
2023/07/07 07:44:49;;;;;;;4.93;2.33;;;24.70;52.10;;;;;;5084236;28;20060;-79
2023/07/07 07:47:16;;;;;;;4.63;2.42;;;24.70;52.60;;;;;;5066942;28;20053;-78
2023/07/07 07:49:45;;;;;;;9.23;1.90;;;24.80;52.20;;;;;;5081148;28;20501;-79
2023/07/07 07:52:11;;;;;;;3.67;1.70;;;24.80;53.50;;;;;;5089641;28;20626;-79
2023/07/07 07:54:39;;;;;;;9.80;2.13;;;25.00;52.60;;;;;;5080506;28;20105;-80
2023/07/07 07:57:12;;;;;;;4.03;1.90;;;25.30;53.70;;;;;;5085589;28;20052;-79
2023/07/07 07:59:42;;;;;;;8.93;2.20;;;25.50;51.80;;;;;;5078499;28;20098;-79
2023/07/07 08:02:12;;;;;;;5.65;2.40;;;25.70;50.90;;;;;;5069372;28;20137;-82
2023/07/07 08:04:39;;;;;;;7.03;2.22;;;25.80;52.40;;;;;;5080713;28;20923;-79
2023/07/07 08:07:06;;;;;;;2.85;1.67;;;26.00;51.10;;;;;;5064817;28;20044;-79
2023/07/07 08:09:33;;;;;;;3.88;2.10;;;26.10;49.40;;;;;;5061100;28;20059;-78
2023/07/07 08:12:03;;;;;;;3.88;1.83;;;26.30;50.30;;;;;;5065682;28;20054;-78
2023/07/07 08:14:31;;;;;;;8.88;2.17;;;26.40;48.80;;;;;;5063383;28;20160;-78
2023/07/07 08:17:04;;;;;;;6.38;2.15;;;26.50;48.30;;;;;;5062280;28;20044;-78
2023/07/07 08:19:34;;;;;;;4.78;1.95;;;26.70;49.50;;;;;;5089543;28;20040;-82
2023/07/07 08:22:06;;;;;;;11.50;2.25;;;26.60;48.10;;;;;;5068568;28;20114;-82
2023/07/07 08:24:37;;;;;;;5.82;1.80;;;26.70;48.40;;;;;;5063049;28;20080;-82
2023/07/07 08:27:05;;;;;;;3.97;1.95;;;26.80;48.80;;;;;;5078402;28;20040;-83
2023/07/07 08:29:35;;;;;;;7.40;2.10;;;26.90;49.60;;;;;;5068340;28;20514;-82
2023/07/07 08:32:02;;;;;;;3.83;2.10;;;27.10;48.20;;;;;;5090061;28;20373;-82
2023/07/07 08:34:29;;;;;;;7.10;2.17;;;27.30;47.00;;;;;;5092398;28;20072;-82
2023/07/07 08:37:10;;;;;;;3.65;1.60;;;27.40;46.30;;;;;;5075423;28;20080;-81
2023/07/07 08:39:37;;;;;;;5.65;2.05;;;27.50;47.30;;;;;;5070154;28;20129;-82
2023/07/07 08:42:11;;;;;;;5.00;1.80;;;27.60;44.70;;;;;;5083961;28;20044;-83
2023/07/07 08:44:37;;;;;;;4.75;1.90;;;27.60;46.10;;;;;;5079772;28;20087;-83
2023/07/07 08:47:30;;;;;;;5.13;1.88;;;27.60;44.80;;;;;;5086451;28;20412;-85
2023/07/07 08:50:12;;;;;;;2.88;1.83;;;27.80;46.10;;;;;;5039945;28;20107;-84
2023/07/07 08:53:30;;;;;;;4.25;1.88;;;27.70;43.90;;;;;;5072952;28;20080;-85
2023/07/07 08:56:16;;;;;;;4.43;2.10;;;27.90;46.70;;;;;;5063172;28;20048;-84
2023/07/07 08:58:52;;;;;;;5.20;1.80;;;28.20;45.10;;;;;;5092140;28;20044;-85
2023/07/07 09:01:22;;;;;;;4.40;1.90;;;28.40;45.50;;;;;;5069727;28;20800;-85
2023/07/07 09:04:22;;;;;;;4.05;1.70;;;28.40;43.50;;;;;;5091963;28;20808;-85
2023/07/07 09:07:01;;;;;;;6.20;2.35;;;28.50;45.60;;;;;;5090484;28;20420;-85
2023/07/07 09:09:55;;;;;;;3.70;1.70;;;28.90;43.20;;;;;;5087399;28;20131;-84
2023/07/07 09:12:41;;;;;;;4.93;1.58;;;28.90;42.10;;;;;;5080049;28;20468;-85
2023/07/07 09:15:25;;;;;;;3.05;1.73;;;28.50;43.70;;;;;;5067110;28;20047;-85
2023/07/07 09:17:56;;;;;;;4.85;1.60;;;28.20;42.00;;;;;;5072799;28;20044;-84
2023/07/07 09:20:26;;;;;;;4.97;1.90;;;28.00;42.10;;;;;;5089689;28;20036;-84
2023/07/07 09:22:56;;;;;;;5.35;1.85;;;27.70;44.00;;;;;;5090526;28;20733;-80
2023/07/07 09:25:37;;;;;;;3.10;1.27;;;27.80;43.80;;;;;;5091453;28;20101;-86
2023/07/07 09:28:17;;;;;;;2.85;1.55;;;28.00;43.30;;;;;;5095623;28;20044;-83
2023/07/07 09:30:52;;;;;;;6.93;1.60;;;28.10;42.40;;;;;;5078123;28;20106;-88
2023/07/07 09:33:22;;;;;;;5.82;1.65;;;28.00;44.50;;;;;;5091693;28;20380;-85
2023/07/07 09:36:20;;;;;;;3.53;1.85;;;28.00;45.30;;;;;;5077227;28;20048;-82
2023/07/07 09:39:11;;;;;;;6.45;1.90;;;28.30;43.10;;;;;;5079820;28;20048;-82
2023/07/07 09:41:50;;;;;;;2.92;1.58;;;28.70;43.00;;;;;;5095203;22;20044;-81
2023/07/07 09:44:23;;;;;;;4.05;2.00;;;28.80;38.90;;;;;;5055552;28;20044;-80
2023/07/07 09:47:10;;;;;;;5.68;1.70;;;28.40;41.70;;;;;;5068231;28;20054;-80
2023/07/07 09:49:57;;;;;;;3.47;1.30;;;28.10;42.00;;;;;;5057243;28;20041;-80
2023/07/07 09:52:57;;;;;;;9.07;1.67;;;28.10;41.20;;;;;;5063858;28;20106;-80
2023/07/07 09:55:29;;;;;;;7.38;1.70;;;28.40;43.00;;;;;;5049239;28;20041;-80
2023/07/07 09:58:07;;;;;;;7.10;1.95;;;28.60;43.00;;;;;;5057943;28;20123;-81
2023/07/07 10:00:35;;;;;;;4.90;1.50;;;28.70;40.90;;;;;;5068674;28;20558;-81
2023/07/07 10:03:23;;;;;;;4.38;1.50;;;28.80;41.10;;;;;;5068686;28;20041;-81
2023/07/07 10:05:53;;;;;;;2.78;1.50;;;29.00;40.70;;;;;;5063183;28;20052;-82
2023/07/07 10:08:21;;;;;;;2.65;1.48;;;29.40;41.40;;;;;;5054262;28;20048;-81
2023/07/07 10:11:11;;;;;;;3.28;1.60;;;29.60;40.00;;;;;;5065097;28;20136;-79
2023/07/07 10:13:51;;;;;;;5.60;1.73;;;29.80;39.80;;;;;;5060566;28;20610;-79
2023/07/07 10:16:41;;;;;;;5.03;1.67;;;30.00;39.80;;;;;;5066958;28;20163;-79
2023/07/07 10:19:11;;;;;;;4.95;1.73;;;30.10;39.80;;;;;;5020000;28;20535;-79
2023/07/07 10:21:38;;;;;;;3.55;1.73;;;30.30;40.90;;;;;;5065233;28;20045;-79
2023/07/07 10:24:05;;;;;;;5.85;1.55;;;30.80;39.10;;;;;;5069970;28;20141;-79
2023/07/07 10:26:33;;;;;;;2.95;1.63;;;30.90;37.90;;;;;;5065392;28;20056;-79
2023/07/07 10:29:03;;;;;;;2.50;1.35;;;31.20;37.00;;;;;;5071485;28;20754;-78
2023/07/07 10:31:29;;;;;;;2.90;1.80;;;31.20;36.10;;;;;;5082966;22;20074;-78
2023/07/07 10:34:02;;;;;;;3.45;1.30;;;31.20;37.60;;;;;;5084462;28;20047;-78
2023/07/07 10:36:33;;;;;;;1.95;1.50;;;31.30;36.00;;;;;;5086518;28;20608;-80
2023/07/07 10:39:00;;;;;;;4.13;1.50;;;31.10;37.80;;;;;;5080438;28;20407;-80
2023/07/07 10:41:28;;;;;;;3.10;1.30;;;31.00;36.30;;;;;;5084638;28;20698;-81
2023/07/07 10:43:55;;;;;;;5.63;1.73;;;30.80;36.90;;;;;;5085381;28;20052;-81
2023/07/07 10:46:22;;;;;;;3.58;1.70;;;30.40;37.50;;;;;;5097766;28;20052;-81
2023/07/07 10:48:52;;;;;;;4.10;1.33;;;30.00;35.60;;;;;;5091615;28;20127;-81
2023/07/07 10:51:33;;;;;;;2.70;1.60;;;29.10;37.80;;;;;;5086953;28;20043;-82
2023/07/07 10:54:06;;;;;;;4.65;1.95;;;29.10;38.50;;;;;;5098713;28;20120;-79
2023/07/07 10:56:36;;;;;;;9.45;1.83;;;29.00;39.10;;;;;;5096640;28;20074;-80
2023/07/07 10:59:11;;;;;;;4.32;1.55;;;29.00;39.30;;;;;;5085493;28;20083;-80
2023/07/07 11:01:51;;;;;;;4.40;2.00;;;29.30;39.90;;;;;;5092936;28;20044;-80
2023/07/07 11:04:57;;;;;;;5.38;1.95;;;29.20;37.30;;;;;;5088334;28;20055;-78
2023/07/07 11:07:48;;;;;;;4.82;1.77;;;28.70;38.30;;;;;;5086313;28;20052;-81
2023/07/07 11:10:14;;;;;;;5.90;1.85;;;28.70;40.80;;;;;;5083742;28;20454;-80
2023/07/07 11:13:16;;;;;;;5.97;1.70;;;28.90;38.90;;;;;;5086714;28;20272;-80
2023/07/07 11:15:49;;;;;;;3.97;1.70;;;29.20;38.90;;;;;;5085599;28;20040;-80
2023/07/07 11:18:53;;;;;;;6.35;2.53;;;29.40;39.20;;;;;;5086885;28;20075;-82
2023/07/07 11:21:45;;;;;;;2.60;1.63;;;29.60;39.60;;;;;;5078420;28;20048;-78
2023/07/07 11:24:19;;;;;;;2.03;1.65;;;29.90;40.20;;;;;;5077449;28;20052;-79
2023/07/07 11:27:18;;;;;;;5.32;2.20;;;30.00;38.60;;;;;;5084095;28;20047;-80
2023/07/07 11:30:10;;;;;;;5.63;1.95;;;30.10;38.00;;;;;;5082627;28;20048;-79
2023/07/07 11:32:40;;;;;;;3.80;1.75;;;29.90;35.50;;;;;;5080240;28;20052;-80
2023/07/07 11:35:37;;;;;;;3.90;1.67;;;29.40;36.70;;;;;;5082675;28;20044;-80
2023/07/07 11:38:32;;;;;;;9.18;2.03;;;29.00;37.70;;;;;;5074907;28;20052;-79
2023/07/07 11:41:14;;;;;;;9.57;1.90;;;28.60;39.80;;;;;;5081835;28;20167;-79
2023/07/07 11:44:02;;;;;;;2.88;1.60;;;28.30;39.60;;;;;;5081465;28;20084;-78
2023/07/07 11:46:49;;;;;;;6.13;2.00;;;28.30;40.10;;;;;;5081755;28;20069;-79
2023/07/07 11:49:45;;;;;;;4.97;1.70;;;28.50;40.70;;;;;;5079944;28;20059;-79
2023/07/07 11:52:40;;;;;;;2.80;1.60;;;28.90;39.70;;;;;;5081896;28;20040;-79
2023/07/07 11:55:40;;;;;;;3.97;1.70;;;29.20;38.90;;;;;;5078533;28;20059;-79
2023/07/07 11:58:28;;;;;;;5.03;1.75;;;29.40;41.70;;;;;;4991737;28;20077;-79
2023/07/07 12:01:18;;;;;;;7.90;2.00;;;29.50;38.90;;;;;;5098647;28;20647;-79
2023/07/07 12:04:06;;;;;;;24.35;4.20;;;29.80;39.90;;;;;;5085323;28;20071;-80
2023/07/07 12:06:36;;;;;;;76.53;9.35;;;30.10;37.70;;;;;;5082862;28;20416;-80
2023/07/07 12:09:33;;;;;;;2.47;1.38;;;30.20;36.80;;;;;;5080821;28;20101;-80
2023/07/07 12:12:25;;;;;;;6.35;1.60;;;30.30;36.80;;;;;;5084238;28;20071;-80
2023/07/07 12:15:07;;;;;;;44.42;6.70;;;30.30;37.40;;;;;;5066908;28;20040;-80
2023/07/07 12:17:39;;;;;;;11.02;2.50;;;30.40;38.50;;;;;;5084399;28;20055;-81
2023/07/07 12:20:27;;;;;;;22.42;3.88;;;30.50;37.70;;;;;;5103653;28;20101;-82
2023/07/07 12:22:58;;;;;;;4.22;2.03;;;30.50;37.70;;;;;;5085315;28;20055;-79
2023/07/07 12:25:28;;;;;;;3.33;1.80;;;30.70;37.30;;;;;;5088058;28;20056;-79
2023/07/07 12:27:57;;;;;;;7.53;2.08;;;30.60;37.10;;;;;;5085715;28;20147;-79
2023/07/07 12:30:32;;;;;;;5.00;1.35;;;30.60;37.20;;;;;;5088892;28;20523;-87
2023/07/07 12:33:00;;;;;;;174.20;25.38;;;30.70;36.70;;;;;;5087886;28;20492;-83
2023/07/07 12:35:48;;;;;;;19.73;4.15;;;30.80;38.10;;;;;;5086508;28;20048;-84
2023/07/07 12:38:33;;;;;;;4.50;1.77;;;30.90;37.30;;;;;;5079033;28;20040;-82
2023/07/07 12:41:10;;;;;;;64.20;8.05;;;30.90;35.50;;;;;;5089620;28;20488;-86
2023/07/07 12:43:39;;;;;;;3.83;1.30;;;30.70;36.20;;;;;;5085026;28;20651;-82
2023/07/07 12:46:16;;;;;;;3.92;1.73;;;30.50;37.00;;;;;;5092943;28;20737;-81
2023/07/07 12:48:47;;;;;;;2.67;1.30;;;30.30;36.20;;;;;;5088204;28;20075;-81
2023/07/07 12:51:17;;;;;;;3.05;2.10;;;30.20;35.90;;;;;;5086505;28;20052;-82
2023/07/07 12:53:51;;;;;;;4.53;1.67;;;30.20;36.50;;;;;;5085322;28;20055;-81
2023/07/07 12:56:21;;;;;;;2.13;1.53;;;30.10;36.00;;;;;;5084783;28;20044;-81
2023/07/07 12:58:53;;;;;;;10.40;1.65;;;30.20;37.00;;;;;;5082083;28;21029;-82
2023/07/07 13:01:29;;;;;;;3.00;1.80;;;30.30;36.50;;;;;;5083415;28;20441;-86
2023/07/07 13:04:07;;;;;;;3.13;1.80;;;30.40;36.30;;;;;;5088084;28;20052;-86
2023/07/07 13:06:41;;;;;;;5.25;1.60;;;30.50;35.50;;;;;;5086862;28;20058;-86
2023/07/07 13:09:15;;;;;;;6.43;1.73;;;30.40;36.50;;;;;;5096105;28;20101;-85
2023/07/07 13:11:51;;;;;;;2.83;1.53;;;30.60;36.20;;;;;;5095175;28;20975;-86
2023/07/07 13:14:41;;;;;;;1.67;1.42;;;30.60;36.30;;;;;;5089491;28;20050;-86